Time;durP1;ratioP1;P1;durP2;ratioP2;P2;SDS_P1;SDS_P2;PMS_P1;PMS_P2;Temp;Humidity;BMP_temperature;BMP_pressure;BME280_temperature;BME280_humidity;BME280_pressure;Samples;Min_cycle;Max_cycle;Signal;HPM_P1;HPM_P2
2023/04/19 00:02:02;;;;;;;71.00;8.43;;;12.70;10.60;;;;;;5040026;28;20162;-83
2023/04/19 00:04:28;;;;;;;69.07;8.10;;;12.70;12.70;;;;;;5041036;28;20265;-83
2023/04/19 00:06:55;;;;;;;71.35;9.00;;;12.70;14.10;;;;;;5038945;28;20169;-83
2023/04/19 00:09:21;;;;;;;70.47;8.40;;;12.60;15.60;;;;;;5040468;28;20161;-83
2023/04/19 00:11:46;;;;;;;73.70;9.70;;;12.70;16.60;;;;;;5040376;28;20176;-83
2023/04/19 00:14:12;;;;;;;69.10;8.50;;;12.70;16.70;;;;;;5039067;28;20193;-83
2023/04/19 00:16:39;;;;;;;70.03;8.30;;;12.70;15.80;;;;;;5041632;28;20172;-83
2023/04/19 00:19:05;;;;;;;67.90;7.47;;;12.70;15.60;;;;;;5040997;28;20258;-83
2023/04/19 00:21:31;;;;;;;69.93;7.90;;;12.70;17.40;;;;;;5040976;28;20185;-83
2023/04/19 00:23:57;;;;;;;69.97;7.97;;;12.60;18.70;;;;;;5041008;28;20420;-83
2023/04/19 00:26:22;;;;;;;69.70;7.97;;;12.60;17.90;;;;;;5039701;28;20165;-83
2023/04/19 00:31:17;;;;;;;69.40;8.18;;;12.60;20.80;;;;;;5162227;22;20704;-85
2023/04/19 00:33:43;;;;;;;70.20;8.43;;;12.70;18.00;;;;;;5018014;28;20182;-85
2023/04/19 00:36:09;;;;;;;69.80;7.90;;;12.60;20.70;;;;;;5019561;28;20158;-85
2023/04/19 00:38:35;;;;;;;70.60;7.63;;;12.60;21.80;;;;;;5018856;28;20165;-85
2023/04/19 00:41:00;;;;;;;69.47;8.07;;;12.60;22.00;;;;;;5019901;28;20169;-85
2023/04/19 00:43:26;;;;;;;72.90;8.50;;;12.50;25.70;;;;;;5020018;28;20182;-85
2023/04/19 00:46:13;;;;;;;69.60;7.20;;;12.60;24.20;;;;;;5021183;28;20243;-84
2023/04/19 00:49:42;;;;;;;71.60;8.13;;;12.50;25.20;;;;;;4979613;28;20206;-83
2023/04/19 00:55:18;;;;;;;73.13;7.65;;;12.50;27.00;;;;;;5305603;23;20229;-86
2023/04/19 00:57:45;;;;;;;69.77;7.00;;;12.50;28.20;;;;;;5038116;28;20169;-86
2023/04/19 01:00:11;;;;;;;71.00;7.97;;;12.50;28.90;;;;;;5038760;28;20456;-86
2023/04/19 01:02:37;;;;;;;68.60;7.88;;;12.50;28.50;;;;;;5039017;28;20157;-86
2023/04/19 01:05:09;;;;;;;70.73;7.17;;;12.50;28.40;;;;;;5039089;28;20200;-85
2023/04/19 01:07:37;;;;;;;67.00;6.35;;;12.40;30.50;;;;;;5040677;28;20414;-83
2023/04/19 01:10:03;;;;;;;69.05;7.47;;;12.40;33.90;;;;;;5038692;28;20694;-83
2023/04/19 01:12:29;;;;;;;67.30;6.37;;;12.40;32.50;;;;;;5038736;28;20241;-83
2023/04/19 01:14:55;;;;;;;73.73;7.77;;;12.40;33.30;;;;;;5040516;28;20507;-83
2023/04/19 01:17:23;;;;;;;73.20;8.10;;;12.40;33.20;;;;;;5039839;28;20400;-83
2023/04/19 01:19:49;;;;;;;72.20;7.97;;;12.40;33.90;;;;;;5039585;28;20193;-83
2023/04/19 01:22:25;;;;;;;68.60;7.43;;;12.40;34.60;;;;;;5038746;28;20579;-83
2023/04/19 01:24:51;;;;;;;68.78;6.95;;;12.40;35.70;;;;;;5038288;28;20420;-83
2023/04/19 01:27:20;;;;;;;72.00;7.83;;;12.40;36.90;;;;;;5039796;28;20164;-83
2023/04/19 01:29:57;;;;;;;67.90;7.05;;;12.40;34.70;;;;;;5039528;28;20193;-83
2023/04/19 01:32:26;;;;;;;67.65;6.50;;;12.50;35.40;;;;;;5038232;28;20609;-83
2023/04/19 01:34:55;;;;;;;71.97;8.00;;;12.50;33.70;;;;;;5235367;22;20218;-83
2023/04/19 01:37:23;;;;;;;68.68;6.78;;;12.50;35.40;;;;;;5390944;23;20205;-83
2023/04/19 01:39:49;;;;;;;69.00;6.80;;;12.40;36.20;;;;;;5020098;28;20658;-83
2023/04/19 01:42:14;;;;;;;68.13;6.50;;;12.50;35.30;;;;;;5020186;28;20166;-83
2023/04/19 01:44:58;;;;;;;68.40;7.40;;;12.50;35.30;;;;;;5019637;28;20181;-83
2023/04/19 01:47:26;;;;;;;68.30;6.70;;;12.40;37.70;;;;;;5021063;28;20142;-83
2023/04/19 01:49:55;;;;;;;69.15;7.50;;;12.30;39.00;;;;;;5019707;28;20256;-83
2023/04/19 01:55:14;;;;;;;70.65;7.13;;;12.30;41.70;;;;;;5020005;28;20253;-83
2023/04/19 02:00:42;;;;;;;71.25;7.00;;;12.20;44.80;;;;;;5000395;28;20209;-83
2023/04/19 02:03:13;;;;;;;68.22;6.70;;;12.20;47.30;;;;;;5019374;28;20165;-83
2023/04/19 02:05:39;;;;;;;78.25;7.82;;;12.20;46.20;;;;;;5101370;23;20270;-78
2023/04/19 02:08:05;;;;;;;68.28;7.00;;;12.20;48.30;;;;;;5034131;28;20183;-79
2023/04/19 02:10:30;;;;;;;67.53;6.60;;;12.20;48.00;;;;;;5033740;28;20631;-79
2023/04/19 02:12:56;;;;;;;67.60;6.77;;;12.10;50.20;;;;;;5034039;28;20169;-79
2023/04/19 02:15:21;;;;;;;67.37;6.23;;;12.10;48.30;;;;;;5034327;28;20226;-78
2023/04/19 02:17:47;;;;;;;70.90;6.77;;;12.10;49.20;;;;;;5034250;28;20219;-78
2023/04/19 02:20:13;;;;;;;68.00;7.23;;;12.00;54.40;;;;;;5033922;28;20181;-79
2023/04/19 02:22:38;;;;;;;66.20;6.13;;;12.00;52.10;;;;;;5034033;28;20165;-79
2023/04/19 02:25:04;;;;;;;68.87;7.67;;;12.00;57.90;;;;;;5034150;28;20196;-79
2023/04/19 02:27:30;;;;;;;70.87;8.53;;;11.90;61.30;;;;;;5033840;28;20169;-79
2023/04/19 02:29:56;;;;;;;69.20;9.00;;;11.80;65.30;;;;;;5034131;28;20396;-78
2023/04/19 02:32:21;;;;;;;69.20;7.50;;;11.90;66.90;;;;;;5033739;28;20165;-78
2023/04/19 02:34:47;;;;;;;70.13;7.70;;;11.80;71.90;;;;;;5034082;28;20207;-78
2023/04/19 02:37:13;;;;;;;69.97;9.43;;;11.90;69.80;;;;;;5033690;28;20165;-79
2023/04/19 02:39:40;;;;;;;70.20;9.10;;;11.90;69.70;;;;;;5033800;28;20189;-79
2023/04/19 02:42:06;;;;;;;70.63;8.85;;;11.90;70.50;;;;;;5033832;28;20208;-79
2023/04/19 02:44:31;;;;;;;71.77;9.10;;;12.00;70.20;;;;;;5033975;28;20173;-78
2023/04/19 02:46:57;;;;;;;69.50;8.87;;;12.00;65.80;;;;;;5033961;28;20644;-79
2023/04/19 02:49:23;;;;;;;69.40;8.50;;;12.00;65.80;;;;;;5033749;28;20166;-79
2023/04/19 02:51:50;;;;;;;70.20;9.10;;;12.00;67.60;;;;;;5033771;28;20169;-78
2023/04/19 02:54:16;;;;;;;69.10;7.60;;;12.00;70.30;;;;;;5033716;28;20316;-79
2023/04/19 02:56:41;;;;;;;68.90;8.53;;;12.00;68.90;;;;;;5034714;28;20633;-78
2023/04/19 02:59:07;;;;;;;68.73;8.67;;;12.10;66.50;;;;;;5032252;28;20546;-79
2023/04/19 03:01:33;;;;;;;69.00;8.30;;;12.20;60.10;;;;;;5032594;28;20165;-78
2023/04/19 03:03:58;;;;;;;71.60;8.70;;;12.20;63.70;;;;;;5032595;28;20190;-80
2023/04/19 03:06:25;;;;;;;70.10;9.80;;;12.10;66.10;;;;;;5033425;28;20182;-78
2023/04/19 03:08:50;;;;;;;69.13;9.07;;;12.10;70.10;;;;;;5034255;28;20185;-78
2023/04/19 03:11:16;;;;;;;69.40;8.40;;;12.20;66.80;;;;;;5033561;28;20184;-78
2023/04/19 03:13:42;;;;;;;71.35;9.93;;;12.20;65.50;;;;;;5032308;28;20284;-80
2023/04/19 03:16:08;;;;;;;70.07;9.47;;;12.20;66.30;;;;;;5033556;28;20200;-78
2023/04/19 03:18:35;;;;;;;70.03;9.05;;;12.20;66.20;;;;;;5032465;28;20162;-79
2023/04/19 03:21:02;;;;;;;71.65;11.70;;;12.30;60.80;;;;;;5032150;28;20169;-78
2023/04/19 03:23:28;;;;;;;71.57;9.75;;;12.30;59.00;;;;;;5036153;28;20188;-78
2023/04/19 03:25:54;;;;;;;74.25;11.30;;;12.30;58.40;;;;;;5037090;28;20161;-79
2023/04/19 03:28:19;;;;;;;74.73;12.70;;;12.30;57.70;;;;;;5036789;28;20652;-78
2023/04/19 03:30:45;;;;;;;73.43;10.73;;;12.30;56.50;;;;;;5037272;28;20165;-79
2023/04/19 03:33:11;;;;;;;73.63;11.23;;;12.30;56.60;;;;;;5036855;28;20271;-78
2023/04/19 03:35:37;;;;;;;73.27;11.83;;;12.20;57.90;;;;;;5036838;28;20208;-79
2023/04/19 03:38:03;;;;;;;75.77;12.50;;;12.20;58.60;;;;;;5035639;28;20181;-79
2023/04/19 03:40:31;;;;;;;74.20;11.37;;;12.20;62.30;;;;;;5036455;28;20854;-79
2023/04/19 03:42:57;;;;;;;75.40;12.50;;;12.20;61.70;;;;;;5036771;28;20587;-79
2023/04/19 03:45:23;;;;;;;80.67;13.47;;;12.20;62.60;;;;;;5036681;28;20193;-78
2023/04/19 03:47:48;;;;;;;74.97;12.80;;;12.20;64.70;;;;;;5036576;28;20236;-78
2023/04/19 03:50:14;;;;;;;76.10;12.87;;;12.20;60.80;;;;;;5035538;28;20503;-78
2023/04/19 03:52:40;;;;;;;77.60;12.67;;;12.10;67.20;;;;;;5035256;28;20176;-78
2023/04/19 03:55:06;;;;;;;74.77;12.63;;;12.10;70.70;;;;;;5035151;28;20223;-78
2023/04/19 03:57:31;;;;;;;74.85;13.57;;;12.10;68.80;;;;;;5036275;28;20633;-79
2023/04/19 04:00:00;;;;;;;75.37;13.70;;;12.10;70.70;;;;;;5036688;28;20191;-79
2023/04/19 04:02:26;;;;;;;76.28;14.15;;;12.10;74.00;;;;;;5036457;28;20168;-78
2023/04/19 04:04:55;;;;;;;75.10;13.40;;;12.10;75.10;;;;;;5036240;28;20197;-79
2023/04/19 04:07:22;;;;;;;76.90;15.52;;;12.00;81.40;;;;;;5036599;28;20161;-79
2023/04/19 04:09:48;;;;;;;76.93;12.82;;;11.90;84.00;;;;;;5035067;28;20173;-79
2023/04/19 04:12:14;;;;;;;76.47;13.40;;;11.90;84.70;;;;;;5036384;28;20528;-78
2023/04/19 04:14:40;;;;;;;73.73;14.20;;;11.90;88.50;;;;;;5036044;28;20181;-78
2023/04/19 04:17:05;;;;;;;75.07;14.53;;;12.00;87.80;;;;;;5036013;28;20467;-78
2023/04/19 04:19:31;;;;;;;77.90;13.97;;;12.00;88.00;;;;;;5034672;28;20197;-78
2023/04/19 04:21:57;;;;;;;73.53;13.53;;;12.00;88.60;;;;;;5036138;28;20211;-79
2023/04/19 04:24:26;;;;;;;74.40;11.50;;;12.00;90.00;;;;;;5034793;28;20557;-79
2023/04/19 04:26:52;;;;;;;73.70;11.90;;;11.90;94.60;;;;;;5036144;28;20468;-79
2023/04/19 04:29:18;;;;;;;75.10;13.00;;;11.90;95.60;;;;;;5036241;28;20229;-78
2023/04/19 04:31:43;;;;;;;75.90;12.10;;;11.80;96.10;;;;;;5036334;28;20525;-79
2023/04/19 04:34:09;;;;;;;74.30;12.37;;;11.80;98.50;;;;;;5035687;28;20221;-79
2023/04/19 04:36:37;;;;;;;74.13;12.90;;;11.80;99.20;;;;;;5036085;28;20165;-79
2023/04/19 04:39:05;;;;;;;75.15;12.93;;;11.70;99.90;;;;;;5036430;28;20185;-78
2023/04/19 04:41:31;;;;;;;74.07;15.77;;;11.70;99.40;;;;;;5034412;28;20176;-79
2023/04/19 04:43:59;;;;;;;77.67;18.57;;;11.70;99.90;;;;;;5034904;28;20652;-78
2023/04/19 04:46:25;;;;;;;75.25;13.77;;;11.60;99.90;;;;;;5035942;28;20407;-80
2023/04/19 04:48:51;;;;;;;75.80;14.30;;;11.70;99.90;;;;;;5036104;28;20154;-78
2023/04/19 04:51:17;;;;;;;74.63;14.10;;;11.80;99.90;;;;;;5035791;28;20400;-79
2023/04/19 04:53:43;;;;;;;78.30;12.38;;;11.80;98.00;;;;;;5034441;28;20674;-79
2023/04/19 04:56:09;;;;;;;73.90;12.63;;;11.80;98.50;;;;;;5036065;28;20189;-79
2023/04/19 04:58:34;;;;;;;72.90;11.60;;;11.70;99.60;;;;;;5035947;28;20643;-79
2023/04/19 05:01:00;;;;;;;74.87;13.80;;;11.80;98.40;;;;;;5035670;28;20200;-79
2023/04/19 05:03:26;;;;;;;76.17;15.00;;;11.70;99.70;;;;;;5035175;28;20177;-79
2023/04/19 05:05:52;;;;;;;77.53;14.80;;;11.70;99.90;;;;;;5033462;28;20181;-78
2023/04/19 05:08:17;;;;;;;76.83;11.13;;;11.70;99.90;;;;;;5035490;28;20161;-79
2023/04/19 05:10:43;;;;;;;75.73;11.93;;;11.80;97.90;;;;;;5035021;28;20267;-79
2023/04/19 05:13:09;;;;;;;73.67;11.60;;;11.90;96.40;;;;;;5034026;28;20263;-79
2023/04/19 05:15:34;;;;;;;75.40;12.20;;;11.80;96.80;;;;;;5035219;28;20165;-79
2023/04/19 05:18:01;;;;;;;74.43;12.60;;;11.80;95.80;;;;;;5035200;28;20196;-79
2023/04/19 05:20:27;;;;;;;74.97;13.20;;;11.80;96.80;;;;;;5034975;28;20192;-79
2023/04/19 05:22:57;;;;;;;75.68;11.55;;;11.80;95.30;;;;;;5033435;28;20264;-79
2023/04/19 05:25:23;;;;;;;72.75;11.77;;;11.90;93.60;;;;;;5035078;28;20157;-79
2023/04/19 05:27:49;;;;;;;73.47;11.90;;;12.00;93.60;;;;;;5034891;28;20518;-80
2023/04/19 05:30:14;;;;;;;75.47;12.87;;;11.90;92.70;;;;;;5034687;28;20169;-78
2023/04/19 05:32:40;;;;;;;73.93;12.20;;;11.90;92.80;;;;;;5035161;28;20173;-79
2023/04/19 05:35:07;;;;;;;75.63;12.75;;;11.90;91.00;;;;;;5034504;28;20282;-79
2023/04/19 05:37:32;;;;;;;74.78;12.50;;;11.90;90.70;;;;;;5034658;28;20528;-78
2023/04/19 05:39:58;;;;;;;74.67;11.70;;;11.90;88.20;;;;;;5033820;28;20188;-78
2023/04/19 05:42:24;;;;;;;75.00;12.80;;;12.00;86.60;;;;;;5034068;28;20633;-78
2023/04/19 05:44:50;;;;;;;73.80;11.43;;;11.90;89.70;;;;;;5033932;28;20177;-78
2023/04/19 05:47:16;;;;;;;79.73;14.37;;;11.90;88.30;;;;;;5031804;28;20462;-78
2023/04/19 05:49:42;;;;;;;75.35;13.05;;;11.90;83.60;;;;;;5032591;28;20176;-78
2023/04/19 05:52:07;;;;;;;75.63;12.40;;;12.00;82.70;;;;;;5033919;28;20169;-78
2023/04/19 05:54:34;;;;;;;76.50;12.70;;;11.90;82.40;;;;;;5032508;28;20196;-78
2023/04/19 05:57:01;;;;;;;76.10;12.75;;;11.90;82.80;;;;;;5032481;28;20173;-78
2023/04/19 05:59:27;;;;;;;76.97;13.98;;;11.90;81.70;;;;;;5033704;28;20177;-78
2023/04/19 06:01:54;;;;;;;73.77;12.53;;;11.90;83.10;;;;;;5032592;28;20260;-78
2023/04/19 06:04:20;;;;;;;77.80;12.82;;;12.00;81.10;;;;;;5033400;28;20181;-78
2023/04/19 06:06:46;;;;;;;74.57;14.97;;;12.00;79.70;;;;;;5033777;28;20207;-78
2023/04/19 06:09:13;;;;;;;77.77;16.00;;;12.10;72.20;;;;;;5033649;28;20819;-78
2023/04/19 06:11:39;;;;;;;77.38;15.60;;;12.10;69.50;;;;;;5033563;28;20165;-78
2023/04/19 06:14:05;;;;;;;74.63;13.57;;;12.00;68.20;;;;;;5033444;28;20185;-78
2023/04/19 06:16:31;;;;;;;80.97;14.60;;;12.00;67.60;;;;;;5033564;28;20169;-78
2023/04/19 06:18:56;;;;;;;80.30;14.40;;;12.00;67.50;;;;;;5033626;28;20176;-78
2023/04/19 06:21:22;;;;;;;79.27;14.57;;;12.10;58.30;;;;;;5032122;28;20173;-79
2023/04/19 06:23:48;;;;;;;75.47;13.83;;;11.90;61.10;;;;;;5033376;28;20193;-78
2023/04/19 06:26:15;;;;;;;75.80;14.63;;;12.00;59.50;;;;;;5033306;28;20199;-78
2023/04/19 06:28:40;;;;;;;75.43;14.50;;;12.00;56.50;;;;;;5033602;28;20157;-78
2023/04/19 06:31:06;;;;;;;76.97;15.13;;;12.00;55.60;;;;;;5033267;28;20408;-78
2023/04/19 06:33:32;;;;;;;77.20;14.13;;;12.10;55.50;;;;;;5033318;28;20707;-78
2023/04/19 06:35:57;;;;;;;76.60;13.73;;;12.10;54.30;;;;;;5033483;28;20173;-78
2023/04/19 06:38:23;;;;;;;74.20;13.97;;;12.10;50.30;;;;;;5033510;28;20157;-79
2023/04/19 06:40:49;;;;;;;77.90;13.30;;;12.20;45.60;;;;;;5033488;28;20189;-78
2023/04/19 06:43:14;;;;;;;76.73;13.30;;;12.20;46.30;;;;;;5031902;28;20742;-78
2023/04/19 06:45:40;;;;;;;76.60;13.93;;;12.20;44.80;;;;;;5033066;28;20161;-78
2023/04/19 06:48:06;;;;;;;75.30;12.40;;;12.20;43.80;;;;;;5033562;28;20257;-78
2023/04/19 06:50:31;;;;;;;76.77;12.40;;;12.20;40.60;;;;;;5033653;28;20193;-78
2023/04/19 06:52:57;;;;;;;77.90;10.60;;;12.20;37.10;;;;;;5033184;28;20169;-78
2023/04/19 06:55:22;;;;;;;74.97;11.43;;;12.20;34.50;;;;;;5033005;28;20172;-78
2023/04/19 06:57:48;;;;;;;76.70;11.27;;;12.30;34.70;;;;;;5035436;28;20157;-78
2023/04/19 07:00:14;;;;;;;75.17;11.10;;;12.30;32.00;;;;;;5037088;28;20272;-79
2023/04/19 07:02:40;;;;;;;78.93;10.37;;;12.30;25.60;;;;;;5036977;28;20169;-78
2023/04/19 07:05:06;;;;;;;73.50;10.00;;;12.20;28.90;;;;;;5036505;28;20486;-78
2023/04/19 07:07:32;;;;;;;73.95;10.45;;;12.30;30.50;;;;;;5036759;28;20161;-78
2023/04/19 07:10:01;;;;;;;73.73;8.50;;;12.50;22.80;;;;;;5036904;28;20184;-78
2023/04/19 07:12:26;;;;;;;70.57;8.65;;;12.50;19.40;;;;;;5035659;28;20181;-78
2023/04/19 07:14:55;;;;;;;72.53;8.67;;;12.60;20.00;;;;;;5036539;28;20277;-78
2023/04/19 07:17:24;;;;;;;69.78;8.60;;;12.70;16.30;;;;;;5036561;28;20256;-78
2023/04/19 07:19:50;;;;;;;75.55;8.27;;;12.80;16.40;;;;;;5037092;28;20243;-80
2023/04/19 07:22:15;;;;;;;72.00;8.70;;;12.90;11.30;;;;;;5038492;28;20597;-79
2023/04/19 07:24:43;;;;;;;71.00;8.60;;;12.80;3.40;;;;;;5037975;28;20182;-79
2023/04/19 07:27:13;;;;;;;71.32;8.82;;;12.80;7.30;;;;;;5036804;28;20238;-79
2023/04/19 07:29:40;;;;;;;70.50;9.35;;;12.70;1.70;;;;;;5037735;28;20641;-79
2023/04/19 07:32:05;;;;;;;70.15;8.80;;;12.70;2.20;;;;;;5036897;28;20536;-79
2023/04/19 07:34:31;;;;;;;70.77;7.50;;;12.70;1.00;;;;;;5037703;28;20181;-79
2023/04/19 07:36:56;;;;;;;69.17;8.50;;;12.90;2.80;;;;;;5036338;28;20165;-79
2023/04/19 07:39:22;;;;;;;69.93;8.10;;;13.10;1.00;;;;;;5038172;28;20580;-80
2023/04/19 07:41:48;;;;;;;74.60;8.37;;;13.10;1.00;;;;;;5038576;28;20191;-79
2023/04/19 07:44:13;;;;;;;69.57;7.90;;;13.10;1.00;;;;;;5037777;28;20181;-79
2023/04/19 07:46:43;;;;;;;70.07;7.93;;;13.20;1.00;;;;;;5038033;28;20161;-79
2023/04/19 07:49:08;;;;;;;70.80;8.90;;;13.30;1.00;;;;;;5037928;28;20165;-79
2023/04/19 07:51:34;;;;;;;70.20;7.97;;;13.40;1.00;;;;;;5038044;28;20907;-79
2023/04/19 07:54:03;;;;;;;72.77;9.13;;;13.60;1.00;;;;;;5038007;28;20268;-79
2023/04/19 07:56:28;;;;;;;70.15;8.15;;;13.60;1.00;;;;;;5038106;28;20172;-79
2023/04/19 07:58:54;;;;;;;68.60;7.73;;;13.60;1.00;;;;;;5036220;28;20169;-79
2023/04/19 08:01:20;;;;;;;71.40;9.03;;;13.70;1.00;;;;;;5038192;28;20400;-79
2023/04/19 08:03:46;;;;;;;70.60;8.20;;;13.60;1.00;;;;;;5036831;28;20185;-79
2023/04/19 08:06:13;;;;;;;70.27;8.53;;;13.50;1.00;;;;;;5121285;22;20519;-85
2023/04/19 08:08:38;;;;;;;71.75;8.43;;;13.40;1.00;;;;;;5018703;28;20729;-86
2023/04/19 08:11:07;;;;;;;67.90;7.93;;;13.40;1.00;;;;;;5020744;28;20194;-87
2023/04/19 08:13:33;;;;;;;67.90;7.80;;;13.50;1.00;;;;;;5020861;28;20566;-86
2023/04/19 08:15:59;;;;;;;68.03;7.87;;;13.50;1.00;;;;;;5019140;28;20177;-86
2023/04/19 08:18:25;;;;;;;68.00;7.93;;;13.40;1.00;;;;;;5019287;28;20177;-86
2023/04/19 08:20:51;;;;;;;73.30;7.53;;;13.50;1.00;;;;;;5019865;28;20444;-85
2023/04/19 08:23:17;;;;;;;69.03;8.00;;;13.50;1.00;;;;;;5020252;28;20218;-85
2023/04/19 08:25:42;;;;;;;67.27;7.20;;;13.50;1.00;;;;;;5019255;28;20162;-85
2023/04/19 08:28:08;;;;;;;67.47;6.90;;;13.50;1.00;;;;;;5020261;28;20401;-85
2023/04/19 08:30:34;;;;;;;67.87;7.60;;;13.50;1.00;;;;;;5019511;28;20173;-85
2023/04/19 08:33:00;;;;;;;68.00;7.40;;;13.50;1.00;;;;;;5019012;28;20430;-87
2023/04/19 08:35:26;;;;;;;68.10;7.00;;;13.50;1.00;;;;;;5020338;28;20173;-85
2023/04/19 08:37:51;;;;;;;69.07;7.50;;;13.60;1.00;;;;;;5019903;28;20165;-86
2023/04/19 08:40:17;;;;;;;71.90;8.17;;;13.60;1.00;;;;;;5019718;28;20194;-85
2023/04/19 08:42:43;;;;;;;68.90;7.50;;;13.50;1.00;;;;;;5021127;28;20154;-85
2023/04/19 08:45:12;;;;;;;67.67;7.10;;;13.70;1.00;;;;;;5019600;28;20186;-87
2023/04/19 08:47:39;;;;;;;69.45;7.80;;;13.70;1.00;;;;;;5019957;28;20169;-85
2023/04/19 08:50:06;;;;;;;69.15;6.90;;;13.70;1.00;;;;;;5020654;28;20169;-85
2023/04/19 08:52:36;;;;;;;70.53;8.30;;;13.70;1.00;;;;;;5021134;28;20576;-85
2023/04/19 08:55:09;;;;;;;69.40;8.00;;;13.80;1.00;;;;;;5020083;28;20440;-87
2023/04/19 08:57:35;;;;;;;69.43;7.38;;;13.80;1.00;;;;;;5020017;28;20869;-84
2023/04/19 09:00:10;;;;;;;69.07;7.17;;;13.80;1.00;;;;;;5020375;28;20204;-85
2023/04/19 09:02:59;;;;;;;70.60;8.30;;;13.90;1.00;;;;;;5019769;28;20161;-85
2023/04/19 09:05:25;;;;;;;72.50;7.55;;;14.00;1.00;;;;;;5018448;28;20185;-85
2023/04/19 09:07:50;;;;;;;69.10;7.43;;;14.00;1.00;;;;;;5020430;28;20154;-86
2023/04/19 09:10:18;;;;;;;68.77;6.83;;;14.20;1.00;;;;;;5020815;28;20165;-85
2023/04/19 09:13:02;;;;;;;68.63;5.97;;;14.20;1.00;;;;;;5020327;28;20166;-88
2023/04/19 09:15:40;;;;;;;68.10;6.20;;;14.40;1.00;;;;;;5019868;28;20637;-86
2023/04/19 09:18:08;;;;;;;68.10;5.80;;;14.50;1.00;;;;;;5019363;28;20408;-86
2023/04/19 09:20:39;;;;;;;69.20;6.37;;;14.50;1.00;;;;;;5019205;28;20454;-86
2023/04/19 09:23:07;;;;;;;69.10;6.20;;;14.60;1.00;;;;;;5019051;28;20490;-85
2023/04/19 09:25:34;;;;;;;67.27;5.80;;;14.50;1.00;;;;;;5018897;28;20412;-86
2023/04/19 09:28:10;;;;;;;69.40;7.00;;;14.60;1.00;;;;;;5020953;28;20416;-85
2023/04/19 09:30:37;;;;;;;70.60;7.80;;;14.80;1.00;;;;;;5019785;28;20404;-84
2023/04/19 09:33:09;;;;;;;70.30;6.40;;;14.80;1.00;;;;;;5020330;28;20423;-85
2023/04/19 09:35:55;;;;;;;68.00;6.30;;;14.90;1.00;;;;;;5020732;28;20381;-87
2023/04/19 09:38:21;;;;;;;68.90;6.93;;;15.10;1.00;;;;;;5019648;28;20409;-87
2023/04/19 09:40:49;;;;;;;67.97;5.77;;;15.10;1.00;;;;;;5019968;28;20444;-87
2023/04/19 09:43:24;;;;;;;70.47;7.10;;;15.20;1.00;;;;;;5019250;28;20436;-87
2023/04/19 09:45:50;;;;;;;67.03;5.80;;;15.10;1.00;;;;;;5019972;28;20381;-85
2023/04/19 09:48:16;;;;;;;67.40;6.17;;;15.00;1.00;;;;;;5019250;28;20406;-88
2023/04/19 09:50:56;;;;;;;68.07;6.43;;;14.90;1.00;;;;;;5020417;28;20411;-88
2023/04/19 09:53:26;;;;;;;67.80;5.90;;;14.80;1.00;;;;;;5017764;28;20185;-87
2023/04/19 09:55:52;;;;;;;68.30;6.40;;;14.90;1.00;;;;;;5019775;28;20385;-86
2023/04/19 09:58:22;;;;;;;68.50;6.60;;;15.10;1.00;;;;;;5019939;28;20412;-88
2023/04/19 10:00:51;;;;;;;67.87;6.80;;;15.30;1.00;;;;;;5020375;28;20452;-87
2023/04/19 10:03:18;;;;;;;70.40;7.00;;;15.40;1.00;;;;;;5020310;28;20421;-87
2023/04/19 10:05:49;;;;;;;70.03;6.63;;;15.30;1.00;;;;;;5018201;28;20424;-87
2023/04/19 10:08:19;;;;;;;67.87;7.03;;;15.20;1.00;;;;;;5016881;28;20397;-87
2023/04/19 10:10:48;;;;;;;73.40;7.13;;;15.20;1.00;;;;;;5018411;28;20850;-85
2023/04/19 10:13:17;;;;;;;68.77;6.80;;;15.30;1.00;;;;;;5018152;28;20877;-87
2023/04/19 10:15:44;;;;;;;70.20;6.10;;;15.40;1.00;;;;;;5017821;28;20400;-87
2023/04/19 10:18:15;;;;;;;68.50;7.20;;;15.60;1.00;;;;;;5015495;28;20476;-87
2023/04/19 10:20:52;;;;;;;69.50;7.03;;;15.80;1.00;;;;;;5018336;28;20533;-87
2023/04/19 10:23:21;;;;;;;76.27;7.23;;;15.70;1.00;;;;;;5018729;28;20436;-88
2023/04/19 10:25:47;;;;;;;71.03;7.17;;;15.90;1.00;;;;;;5016600;28;20417;-87
2023/04/19 10:28:19;;;;;;;71.30;7.67;;;16.10;1.00;;;;;;5018514;28;20543;-87
2023/04/19 10:31:00;;;;;;;68.23;5.87;;;16.10;1.00;;;;;;5017378;28;20420;-86
2023/04/19 10:33:30;;;;;;;68.50;6.00;;;16.20;1.00;;;;;;5020542;28;20429;-86
2023/04/19 10:35:58;;;;;;;72.17;5.63;;;16.20;1.00;;;;;;5021816;28;20536;-87
2023/04/19 10:38:42;;;;;;;69.10;5.73;;;16.30;1.00;;;;;;5021775;28;20761;-87
2023/04/19 10:41:10;;;;;;;68.87;5.63;;;16.60;1.00;;;;;;5022679;28;20441;-87
2023/04/19 10:43:37;;;;;;;68.77;5.03;;;16.70;1.00;;;;;;5024407;28;20464;-87
2023/04/19 10:46:12;;;;;;;70.83;5.00;;;17.00;1.00;;;;;;5023870;28;20450;-87
2023/04/19 10:48:58;;;;;;;68.10;4.67;;;17.00;1.00;;;;;;5023085;28;20499;-87
2023/04/19 10:51:28;;;;;;;69.13;4.90;;;17.00;1.00;;;;;;5023518;28;20475;-86
2023/04/19 10:54:02;;;;;;;68.37;4.90;;;17.10;1.00;;;;;;5023397;28;20785;-86
2023/04/19 10:56:38;;;;;;;69.03;5.20;;;17.10;1.00;;;;;;5024162;28;20801;-86
2023/04/19 10:59:06;;;;;;;68.07;4.27;;;16.90;1.00;;;;;;5022926;28;20452;-87
2023/04/19 11:01:38;;;;;;;68.90;4.97;;;17.20;1.00;;;;;;5022425;28;20497;-86
2023/04/19 11:04:16;;;;;;;68.37;4.80;;;17.30;1.00;;;;;;5023384;28;20426;-86
2023/04/19 11:06:53;;;;;;;69.73;5.67;;;17.40;1.00;;;;;;5022927;28;20426;-86
2023/04/19 11:09:30;;;;;;;70.40;5.10;;;17.50;1.00;;;;;;5021034;28;20426;-86
2023/04/19 11:12:09;;;;;;;68.17;4.40;;;17.50;1.00;;;;;;5022726;28;20416;-87
2023/04/19 11:14:46;;;;;;;70.50;6.17;;;17.50;1.00;;;;;;5021907;28;20939;-87
2023/04/19 11:17:17;;;;;;;68.37;5.00;;;17.70;1.00;;;;;;5021967;28;20432;-87
2023/04/19 11:20:05;;;;;;;67.67;4.83;;;17.80;1.00;;;;;;5022240;28;20562;-86
2023/04/19 11:22:32;;;;;;;68.20;5.50;;;17.70;1.00;;;;;;5021158;28;20495;-87
2023/04/19 11:25:18;;;;;;;68.20;5.10;;;17.70;1.00;;;;;;5020444;28;20452;-87
2023/04/19 11:27:53;;;;;;;71.70;5.03;;;17.80;1.00;;;;;;5021970;28;20748;-87
2023/04/19 11:30:21;;;;;;;69.53;5.13;;;17.60;1.00;;;;;;5022277;28;20460;-86
2023/04/19 11:32:51;;;;;;;66.97;4.63;;;17.50;1.00;;;;;;5022046;28;20418;-86
2023/04/19 11:35:26;;;;;;;70.90;5.20;;;17.50;1.00;;;;;;5020821;28;20431;-86
2023/04/19 11:37:52;;;;;;;68.10;5.07;;;17.60;1.00;;;;;;5022661;28;20399;-86
2023/04/19 11:40:20;;;;;;;68.30;5.10;;;17.60;1.00;;;;;;5022242;28;20451;-85
2023/04/19 11:42:52;;;;;;;67.87;4.53;;;17.70;1.00;;;;;;5021790;28;20446;-87
2023/04/19 11:45:32;;;;;;;67.87;4.80;;;17.50;1.00;;;;;;5022609;28;20387;-87
2023/04/19 11:47:58;;;;;;;69.90;6.00;;;17.60;1.00;;;;;;5022614;28;20404;-87
2023/04/19 11:50:38;;;;;;;71.00;4.70;;;17.80;1.00;;;;;;5020528;28;20768;-86
2023/04/19 11:53:25;;;;;;;71.40;5.00;;;18.10;1.00;;;;;;5022344;28;20489;-85
2023/04/19 11:55:52;;;;;;;68.50;5.10;;;18.30;1.00;;;;;;5020858;28;20514;-85
2023/04/19 11:58:30;;;;;;;68.27;5.57;;;18.30;1.00;;;;;;5020713;28;20839;-85
2023/04/19 12:01:02;;;;;;;78.57;7.50;;;18.10;1.00;;;;;;5019551;28;20525;-85
2023/04/19 12:03:28;;;;;;;69.10;6.00;;;18.20;1.00;;;;;;5020003;28;20523;-86
2023/04/19 12:06:02;;;;;;;69.10;5.50;;;17.70;1.00;;;;;;5019537;28;20451;-86
2023/04/19 12:08:35;;;;;;;71.10;6.40;;;17.80;1.00;;;;;;5020413;28;20400;-85
2023/04/19 12:11:02;;;;;;;67.60;5.60;;;17.60;1.00;;;;;;5020543;28;20427;-85
2023/04/19 12:13:31;;;;;;;69.77;5.90;;;17.40;1.00;;;;;;5018623;28;20435;-85
2023/04/19 12:15:58;;;;;;;71.10;6.23;;;17.60;1.00;;;;;;5020135;28;20512;-86
2023/04/19 12:18:24;;;;;;;69.60;7.10;;;17.80;1.00;;;;;;5019818;28;20426;-85
2023/04/19 12:20:51;;;;;;;68.80;6.30;;;17.50;1.00;;;;;;5020852;28;20446;-85
2023/04/19 12:23:18;;;;;;;67.97;6.27;;;17.50;1.00;;;;;;5021350;28;20985;-85
2023/04/19 12:25:45;;;;;;;70.40;6.37;;;17.50;1.00;;;;;;5021386;28;20414;-86
2023/04/19 12:28:12;;;;;;;68.57;6.73;;;17.50;1.00;;;;;;5021686;28;20415;-86
2023/04/19 12:30:39;;;;;;;68.50;5.50;;;17.40;1.00;;;;;;5021592;28;20416;-85
2023/04/19 12:33:08;;;;;;;68.30;5.57;;;17.50;1.00;;;;;;5022372;28;20412;-87
2023/04/19 12:35:34;;;;;;;70.83;6.27;;;17.50;1.00;;;;;;5021805;28;20411;-86
2023/04/19 12:38:01;;;;;;;67.73;5.50;;;17.40;1.00;;;;;;5020205;28;20427;-86
2023/04/19 12:40:29;;;;;;;67.50;4.90;;;16.90;1.00;;;;;;5021939;28;20510;-86
2023/04/19 12:42:55;;;;;;;70.50;5.70;;;16.50;1.00;;;;;;5018891;28;20423;-85
2023/04/19 12:45:21;;;;;;;67.60;5.20;;;16.70;1.00;;;;;;5020100;28;20445;-86
2023/04/19 12:47:47;;;;;;;67.27;5.30;;;16.90;1.00;;;;;;5021604;28;20212;-86
2023/04/19 12:50:14;;;;;;;68.07;5.23;;;17.20;1.00;;;;;;5020072;28;20209;-86
2023/04/19 12:52:41;;;;;;;67.90;5.67;;;17.30;1.00;;;;;;5021430;28;20404;-86
2023/04/19 12:55:07;;;;;;;67.50;5.00;;;17.10;1.00;;;;;;5020082;28;20457;-87